Time;durP1;ratioP1;P1;durP2;ratioP2;P2;SDS_P1;SDS_P2;PMS_P1;PMS_P2;Temp;Humidity;BMP_temperature;BMP_pressure;BME280_temperature;BME280_humidity;BME280_pressure;Samples;Min_cycle;Max_cycle;Signal;HPM_P1;HPM_P2
2022/06/28 00:00:21;;;;;;;1.13;1.02;;;25.30;98.00;;;;;;5014133;28;20109;-59
2022/06/28 00:02:47;;;;;;;1.73;1.20;;;25.40;97.80;;;;;;5014285;28;20397;-60
2022/06/28 00:05:12;;;;;;;1.17;1.08;;;25.40;97.80;;;;;;5013744;28;20034;-61
2022/06/28 00:07:39;;;;;;;1.25;1.15;;;25.30;97.90;;;;;;5013745;28;20026;-60
2022/06/28 00:10:05;;;;;;;1.55;1.40;;;25.30;98.10;;;;;;5013982;28;20072;-60
2022/06/28 00:12:31;;;;;;;1.55;1.15;;;25.20;98.40;;;;;;5013900;28;20435;-59
2022/06/28 00:17:42;;;;;;;1.40;1.30;;;25.10;99.00;;;;;;5013590;28;20080;-59
2022/06/28 00:20:09;;;;;;;1.60;1.30;;;25.00;99.30;;;;;;5014019;28;20057;-59
2022/06/28 00:22:35;;;;;;;1.85;1.55;;;25.00;99.20;;;;;;5013645;28;20022;-59
2022/06/28 00:25:01;;;;;;;1.85;1.70;;;25.00;99.30;;;;;;5013908;28;20084;-59
2022/06/28 00:27:26;;;;;;;1.63;1.50;;;25.00;99.50;;;;;;5014002;28;20026;-59
2022/06/28 00:29:52;;;;;;;1.52;1.40;;;24.90;99.60;;;;;;5045584;28;20033;-60
2022/06/28 00:32:18;;;;;;;1.40;1.30;;;24.90;99.80;;;;;;5013566;28;20030;-59
2022/06/28 00:34:43;;;;;;;1.75;1.60;;;24.90;99.90;;;;;;5013529;28;20065;-60
2022/06/28 00:37:09;;;;;;;1.90;1.80;;;24.90;99.90;;;;;;5013603;28;20052;-59
2022/06/28 00:39:35;;;;;;;2.13;2.03;;;24.80;99.90;;;;;;5013552;28;20022;-59
2022/06/28 00:42:00;;;;;;;2.15;1.95;;;24.60;99.90;;;;;;5013653;28;20026;-60
2022/06/28 00:44:27;;;;;;;2.45;2.25;;;24.50;99.90;;;;;;5013814;28;20477;-60
2022/06/28 00:46:53;;;;;;;2.25;2.05;;;24.40;99.90;;;;;;5013347;28;20026;-59
2022/06/28 00:49:20;;;;;;;2.13;2.03;;;24.40;99.90;;;;;;5013705;28;20061;-60
2022/06/28 00:51:45;;;;;;;2.58;1.92;;;24.30;99.90;;;;;;5013463;28;20108;-59
2022/06/28 00:54:12;;;;;;;1.80;1.70;;;24.30;99.90;;;;;;5013504;28;20472;-59
2022/06/28 00:56:38;;;;;;;2.00;1.90;;;24.30;99.90;;;;;;5013356;28;20026;-61
2022/06/28 00:59:03;;;;;;;1.90;1.80;;;24.40;99.90;;;;;;5013235;28;20053;-60
2022/06/28 01:01:30;;;;;;;1.70;1.60;;;24.40;99.90;;;;;;5013193;28;20062;-61
2022/06/28 01:03:55;;;;;;;3.00;1.77;;;24.40;99.90;;;;;;5013417;28;20030;-60
2022/06/28 01:06:21;;;;;;;1.88;1.73;;;24.40;99.90;;;;;;5013576;28;20033;-61
2022/06/28 01:08:47;;;;;;;2.60;1.90;;;24.40;99.90;;;;;;5013589;28;20096;-59
2022/06/28 01:11:20;;;;;;;1.83;1.73;;;24.30;99.90;;;;;;5013566;28;20373;-59
2022/06/28 01:13:53;;;;;;;1.88;1.77;;;24.20;99.90;;;;;;5013300;28;20056;-60
2022/06/28 01:16:20;;;;;;;1.60;1.50;;;24.30;99.90;;;;;;5013016;28;20048;-59
2022/06/28 01:18:46;;;;;;;1.20;1.17;;;24.30;99.90;;;;;;5015101;28;20103;-60
2022/06/28 01:21:13;;;;;;;2.25;2.05;;;24.40;99.90;;;;;;5017246;28;20022;-59
2022/06/28 01:23:43;;;;;;;2.05;1.90;;;24.40;99.90;;;;;;5016997;28;20038;-59
2022/06/28 01:26:14;;;;;;;1.55;1.45;;;24.30;99.90;;;;;;5016894;28;20372;-61
2022/06/28 01:28:42;;;;;;;1.60;1.50;;;24.30;99.90;;;;;;5017134;28;20039;-59
2022/06/28 01:31:08;;;;;;;3.03;2.70;;;24.30;99.90;;;;;;5016648;28;20036;-59
2022/06/28 01:33:36;;;;;;;2.15;1.98;;;24.20;99.90;;;;;;5017041;28;20018;-59
2022/06/28 01:36:04;;;;;;;1.83;1.73;;;24.10;99.90;;;;;;5016779;28;20572;-61
2022/06/28 01:38:31;;;;;;;1.65;1.55;;;24.00;99.90;;;;;;5016724;28;20026;-60
2022/06/28 01:40:56;;;;;;;1.58;1.48;;;24.00;99.90;;;;;;5016637;28;20014;-59
2022/06/28 01:43:22;;;;;;;1.88;1.77;;;24.10;99.90;;;;;;5016818;28;20057;-59
2022/06/28 01:45:50;;;;;;;2.00;1.90;;;24.10;99.90;;;;;;5016636;28;20030;-60
2022/06/28 01:48:18;;;;;;;1.92;1.83;;;24.00;99.90;;;;;;5016453;28;20061;-60
2022/06/28 01:50:45;;;;;;;2.45;1.80;;;23.90;99.90;;;;;;5016660;28;20495;-61
2022/06/28 01:53:10;;;;;;;2.00;1.70;;;23.90;99.90;;;;;;5016421;28;20068;-59
2022/06/28 01:55:36;;;;;;;1.60;1.50;;;23.90;99.90;;;;;;5016651;28;20046;-59
2022/06/28 01:58:03;;;;;;;2.50;1.70;;;23.90;99.90;;;;;;5016316;28;20050;-60
2022/06/28 02:00:29;;;;;;;1.95;1.75;;;24.00;99.90;;;;;;5016141;28;20496;-61
2022/06/28 02:02:55;;;;;;;1.83;1.73;;;23.90;99.90;;;;;;5016068;28;20493;-61
2022/06/28 02:05:21;;;;;;;2.47;1.98;;;23.90;99.90;;;;;;5016503;28;20024;-59
2022/06/28 02:07:48;;;;;;;1.50;1.40;;;23.90;99.90;;;;;;5016169;28;20034;-59
2022/06/28 02:10:13;;;;;;;1.48;1.38;;;23.90;99.90;;;;;;5016195;28;20436;-59
2022/06/28 02:12:39;;;;;;;1.05;1.05;;;23.90;99.90;;;;;;5016270;28;20026;-60
2022/06/28 02:15:05;;;;;;;1.45;1.35;;;23.90;99.90;;;;;;5016115;28;20385;-60
2022/06/28 02:17:31;;;;;;;1.40;1.30;;;23.90;99.90;;;;;;5015995;28;20075;-61
2022/06/28 02:19:57;;;;;;;1.25;1.25;;;23.90;99.90;;;;;;5015820;28;20029;-60
2022/06/28 02:22:22;;;;;;;1.38;1.27;;;23.90;99.90;;;;;;5015978;28;20037;-60
2022/06/28 02:24:48;;;;;;;1.40;1.30;;;23.90;99.90;;;;;;5015966;28;20026;-60
2022/06/28 02:27:14;;;;;;;1.27;1.17;;;23.90;99.90;;;;;;5016009;28;20022;-60
2022/06/28 02:29:40;;;;;;;1.08;1.02;;;23.90;99.90;;;;;;5015745;28;20018;-60
2022/06/28 02:32:06;;;;;;;1.58;1.42;;;23.90;99.90;;;;;;5015817;28;20104;-58
2022/06/28 02:42:44;;;;;;;1.50;1.40;;;23.70;99.90;;;;;;5015338;28;20041;-59
2022/06/28 02:45:09;;;;;;;1.00;1.00;;;23.70;99.90;;;;;;5015394;28;20025;-60
2022/06/28 02:47:35;;;;;;;2.28;1.35;;;23.70;99.90;;;;;;5015480;28;20022;-60
2022/06/28 02:50:01;;;;;;;1.80;1.50;;;23.70;99.90;;;;;;5015697;28;20025;-60
2022/06/28 02:52:27;;;;;;;2.42;1.50;;;23.70;99.90;;;;;;5015326;28;20030;-59
2022/06/28 02:54:52;;;;;;;3.22;1.90;;;23.70;99.90;;;;;;5015649;28;20030;-61
2022/06/28 02:57:18;;;;;;;1.50;1.40;;;23.60;99.90;;;;;;5015022;28;20493;-60
2022/06/28 02:59:44;;;;;;;1.50;1.40;;;23.60;99.90;;;;;;5015216;28;20390;-59
2022/06/28 03:02:10;;;;;;;1.50;1.40;;;23.60;99.90;;;;;;5015427;28;20388;-61
2022/06/28 03:04:36;;;;;;;1.75;1.65;;;23.60;99.90;;;;;;5015300;28;20018;-59
2022/06/28 03:07:02;;;;;;;1.65;1.55;;;23.60;99.90;;;;;;5015014;28;20101;-60
2022/06/28 03:09:27;;;;;;;1.48;1.38;;;23.60;99.90;;;;;;5015060;28;20018;-60
2022/06/28 03:11:53;;;;;;;1.20;1.20;;;23.60;99.90;;;;;;5015098;28;20088;-61
2022/06/28 03:14:18;;;;;;;1.45;1.35;;;23.60;99.90;;;;;;5015232;28;20034;-61
2022/06/28 03:16:44;;;;;;;1.70;1.60;;;23.60;99.90;;;;;;5014811;28;20022;-59
2022/06/28 03:19:10;;;;;;;1.48;1.38;;;23.50;99.90;;;;;;5014785;28;20380;-60
2022/06/28 03:21:35;;;;;;;1.95;1.73;;;23.50;99.90;;;;;;5014786;28;20026;-59
2022/06/28 03:24:01;;;;;;;1.40;1.30;;;23.50;99.90;;;;;;5014924;28;20022;-60
2022/06/28 03:26:27;;;;;;;1.38;1.38;;;23.50;99.90;;;;;;5014601;28;20080;-61
2022/06/28 03:28:52;;;;;;;2.10;1.80;;;23.60;99.90;;;;;;5014741;28;20076;-60
2022/06/28 03:31:18;;;;;;;2.00;1.90;;;23.50;99.90;;;;;;5014581;28;20034;-60
2022/06/28 03:33:43;;;;;;;1.95;1.85;;;23.50;99.90;;;;;;5014552;28;20022;-60
2022/06/28 03:36:09;;;;;;;1.80;1.70;;;23.50;99.90;;;;;;5014648;28;20033;-60
2022/06/28 03:38:35;;;;;;;1.60;1.50;;;23.50;99.90;;;;;;5014508;28;20030;-60
2022/06/28 03:41:00;;;;;;;2.28;2.05;;;23.50;99.90;;;;;;5013692;28;20107;-60
2022/06/28 03:43:26;;;;;;;1.85;1.75;;;23.50;99.90;;;;;;5014327;28;20029;-60
2022/06/28 03:45:52;;;;;;;2.20;2.00;;;23.50;99.90;;;;;;5014371;28;20481;-60
2022/06/28 03:48:17;;;;;;;1.63;1.52;;;23.50;99.90;;;;;;5014483;28;20022;-60
2022/06/28 03:50:43;;;;;;;1.70;1.60;;;23.50;99.90;;;;;;5014406;28;20029;-60
2022/06/28 03:53:09;;;;;;;1.88;1.77;;;23.60;99.90;;;;;;5014319;28;20033;-60
2022/06/28 03:55:34;;;;;;;1.70;1.60;;;23.60;99.90;;;;;;5014058;28;20096;-61
2022/06/28 03:58:00;;;;;;;1.55;1.45;;;23.60;99.90;;;;;;5014238;28;20442;-60
2022/06/28 04:00:25;;;;;;;1.60;1.50;;;23.70;99.90;;;;;;5014151;28;20064;-60
2022/06/28 04:02:51;;;;;;;2.75;2.30;;;23.70;99.90;;;;;;5014187;28;20033;-58
2022/06/28 04:05:17;;;;;;;1.77;1.67;;;23.80;99.90;;;;;;5014179;28;20428;-60
2022/06/28 04:07:43;;;;;;;2.45;2.25;;;23.70;99.90;;;;;;5014110;28;20025;-61
2022/06/28 04:10:09;;;;;;;1.80;1.70;;;23.70;99.90;;;;;;5013829;28;20030;-60
2022/06/28 04:12:34;;;;;;;2.00;1.90;;;23.70;99.90;;;;;;5014112;28;20018;-59
2022/06/28 04:15:00;;;;;;;2.33;2.22;;;23.80;99.90;;;;;;5013892;28;20152;-60
2022/06/28 04:17:26;;;;;;;2.47;2.00;;;23.80;99.90;;;;;;5013930;28;20063;-60
2022/06/28 04:19:51;;;;;;;2.30;2.10;;;23.80;99.90;;;;;;5013678;28;20033;-59
2022/06/28 04:22:17;;;;;;;1.83;1.73;;;23.80;99.90;;;;;;5013883;28;20030;-60
2022/06/28 04:24:42;;;;;;;1.77;1.67;;;23.90;99.90;;;;;;5013966;28;20026;-61
2022/06/28 04:27:08;;;;;;;1.73;1.63;;;23.90;99.90;;;;;;5013429;28;20026;-60
2022/06/28 04:29:34;;;;;;;2.35;2.15;;;24.00;99.90;;;;;;5013900;28;20029;-59
2022/06/28 04:31:59;;;;;;;2.60;2.40;;;24.10;99.90;;;;;;5013649;28;20029;-59
2022/06/28 04:34:25;;;;;;;2.38;2.00;;;24.10;99.90;;;;;;5013801;28;20018;-59
2022/06/28 04:36:51;;;;;;;1.88;1.77;;;24.10;99.90;;;;;;5013884;28;20026;-61
2022/06/28 04:39:17;;;;;;;2.65;2.45;;;24.20;99.90;;;;;;5013479;28;20022;-59
2022/06/28 04:41:42;;;;;;;2.30;2.08;;;24.30;99.90;;;;;;5013532;28;20393;-59
2022/06/28 04:44:08;;;;;;;2.38;2.10;;;24.20;99.90;;;;;;5013735;28;20109;-59
2022/06/28 04:46:33;;;;;;;2.70;1.80;;;24.20;99.90;;;;;;5013773;28;20026;-60
2022/06/28 04:48:59;;;;;;;1.90;1.80;;;24.30;99.90;;;;;;5013433;28;20034;-60
2022/06/28 04:51:25;;;;;;;3.75;3.50;;;24.40;99.90;;;;;;5013401;28;20033;-59
2022/06/28 04:53:50;;;;;;;3.08;2.88;;;24.40;99.90;;;;;;5015654;28;20392;-58
2022/06/28 04:56:16;;;;;;;2.90;2.55;;;24.30;99.90;;;;;;5017583;28;20380;-59
2022/06/28 04:58:42;;;;;;;2.47;2.03;;;24.30;99.90;;;;;;5017041;28;20057;-59
2022/06/28 05:01:08;;;;;;;2.15;2.05;;;24.50;99.90;;;;;;5017570;28;20068;-60
2022/06/28 05:03:34;;;;;;;2.28;2.08;;;24.60;99.90;;;;;;5017108;28;20038;-62
2022/06/28 05:05:59;;;;;;;2.38;1.83;;;24.60;99.90;;;;;;5016461;28;20101;-61
2022/06/28 05:08:25;;;;;;;2.60;2.40;;;24.70;99.90;;;;;;5017071;28;20065;-61
2022/06/28 05:10:51;;;;;;;2.63;2.42;;;24.80;99.90;;;;;;5016614;28;20029;-61
2022/06/28 05:13:16;;;;;;;2.58;2.40;;;24.80;99.90;;;;;;5017116;28;20481;-62
2022/06/28 05:15:42;;;;;;;1.83;1.73;;;24.90;99.90;;;;;;5016961;28;20109;-61
2022/06/28 05:18:08;;;;;;;2.78;2.40;;;24.90;99.90;;;;;;5016889;28;20022;-60
2022/06/28 05:20:34;;;;;;;3.42;2.42;;;25.00;99.90;;;;;;5016888;28;20473;-61
2022/06/28 05:22:59;;;;;;;2.83;2.53;;;25.10;99.90;;;;;;5014672;28;20026;-60
2022/06/28 05:25:25;;;;;;;3.75;2.80;;;25.00;99.90;;;;;;5015234;28;20018;-61
2022/06/28 05:27:51;;;;;;;3.70;3.40;;;25.10;99.90;;;;;;5015092;28;20333;-61
2022/06/28 05:30:17;;;;;;;4.10;3.58;;;25.00;99.90;;;;;;5015052;28;20018;-62
2022/06/28 05:32:43;;;;;;;3.20;2.90;;;24.90;99.90;;;;;;5015212;28;20022;-62
2022/06/28 05:35:09;;;;;;;4.50;3.05;;;25.00;99.90;;;;;;5015808;28;20045;-62
2022/06/28 05:37:35;;;;;;;3.58;3.38;;;25.10;99.90;;;;;;5016058;28;20022;-59
2022/06/28 05:40:02;;;;;;;3.40;3.10;;;25.20;99.90;;;;;;5016828;28;20100;-59
2022/06/28 05:42:27;;;;;;;2.58;2.38;;;25.20;99.90;;;;;;5015740;28;20076;-62
2022/06/28 05:44:53;;;;;;;2.80;2.22;;;25.40;99.90;;;;;;5015933;28;20475;-59
2022/06/28 05:47:19;;;;;;;2.40;2.20;;;25.50;99.90;;;;;;5016654;28;20079;-62
2022/06/28 05:49:45;;;;;;;2.00;1.90;;;25.70;99.90;;;;;;5016484;28;20033;-60
2022/06/28 05:52:10;;;;;;;1.67;1.58;;;25.80;99.90;;;;;;5016427;28;20029;-60
2022/06/28 05:54:36;;;;;;;2.33;2.20;;;26.00;99.90;;;;;;5016489;28;20512;-64
2022/06/28 05:57:02;;;;;;;4.30;3.40;;;26.20;99.90;;;;;;5016198;28;20033;-60
2022/06/28 05:59:28;;;;;;;3.47;3.10;;;26.20;99.90;;;;;;5016083;28;20033;-60
2022/06/28 06:01:55;;;;;;;5.40;3.92;;;26.20;99.90;;;;;;5015979;28;20030;-62
2022/06/28 06:04:24;;;;;;;7.65;4.10;;;26.30;99.90;;;;;;5015940;28;20385;-62
2022/06/28 06:06:50;;;;;;;5.28;3.50;;;26.30;99.90;;;;;;5015887;28;20030;-64
2022/06/28 06:09:16;;;;;;;3.42;3.15;;;26.30;99.90;;;;;;5014808;28;20388;-63
2022/06/28 06:11:41;;;;;;;2.90;2.70;;;26.40;99.90;;;;;;5014453;28;20022;-61
2022/06/28 06:14:07;;;;;;;3.30;3.00;;;26.70;99.90;;;;;;5014255;28;20028;-64
2022/06/28 06:16:32;;;;;;;2.92;2.72;;;26.90;99.80;;;;;;5014315;28;20033;-63
2022/06/28 06:18:58;;;;;;;3.08;2.78;;;26.90;99.90;;;;;;5015591;28;20069;-62
2022/06/28 06:21:24;;;;;;;4.43;3.30;;;27.10;99.80;;;;;;5015500;28;20053;-63
2022/06/28 06:23:49;;;;;;;2.92;2.72;;;27.30;99.90;;;;;;5015709;28;20026;-63
2022/06/28 06:26:15;;;;;;;3.58;3.33;;;27.40;99.80;;;;;;5015581;28;20022;-62
2022/06/28 06:28:41;;;;;;;3.40;3.10;;;27.50;99.70;;;;;;5015582;28;20018;-60
2022/06/28 06:31:08;;;;;;;3.42;3.08;;;27.60;99.60;;;;;;5015577;28;20033;-59
2022/06/28 06:33:34;;;;;;;3.17;2.63;;;27.70;99.90;;;;;;5014348;28;20022;-63
2022/06/28 06:36:00;;;;;;;3.88;3.53;;;27.80;99.20;;;;;;5013442;28;20109;-62
2022/06/28 06:38:26;;;;;;;4.07;3.40;;;27.90;99.50;;;;;;5015412;28;20113;-55
2022/06/28 06:40:54;;;;;;;4.13;3.60;;;28.00;98.80;;;;;;5014592;28;20448;-60
2022/06/28 06:43:20;;;;;;;3.95;3.00;;;28.10;98.60;;;;;;5014511;28;20558;-58
2022/06/28 06:45:46;;;;;;;3.45;3.13;;;28.20;99.20;;;;;;5013493;28;20018;-62
2022/06/28 06:48:12;;;;;;;3.85;2.72;;;28.40;98.60;;;;;;5013482;28;20030;-61
2022/06/28 06:50:37;;;;;;;5.35;4.10;;;28.50;98.60;;;;;;5014513;28;20026;-61
2022/06/28 06:53:03;;;;;;;3.40;3.10;;;28.60;98.20;;;;;;5014259;28;20372;-59
2022/06/28 06:55:29;;;;;;;3.40;2.97;;;28.70;97.90;;;;;;5012632;28;20033;-60
2022/06/28 06:57:55;;;;;;;3.63;3.33;;;28.80;97.50;;;;;;5011721;28;20468;-59
2022/06/28 07:00:21;;;;;;;3.60;3.30;;;29.00;98.50;;;;;;5011792;28;20022;-59
2022/06/28 07:02:47;;;;;;;4.50;4.10;;;29.10;98.00;;;;;;5010266;28;20080;-61
2022/06/28 07:05:13;;;;;;;3.15;2.83;;;29.20;96.90;;;;;;5012788;28;20030;-63
2022/06/28 07:07:39;;;;;;;4.90;3.72;;;29.20;97.00;;;;;;5011651;28;20033;-54
2022/06/28 07:12:41;;;;;;;5.97;3.65;;;29.50;96.70;;;;;;5534562;23;20053;-63
2022/06/28 07:15:07;;;;;;;5.78;3.20;;;29.70;95.90;;;;;;4994718;28;20468;-60
2022/06/28 07:17:33;;;;;;;5.53;3.10;;;29.80;95.40;;;;;;4994649;28;20033;-64
2022/06/28 07:19:58;;;;;;;3.28;3.08;;;29.80;94.80;;;;;;4992434;28;20038;-64
2022/06/28 07:22:24;;;;;;;3.15;2.85;;;29.90;95.40;;;;;;4992762;28;20038;-64
2022/06/28 07:24:51;;;;;;;3.05;2.55;;;30.10;95.40;;;;;;4991213;28;20031;-65
2022/06/28 07:27:17;;;;;;;2.67;2.47;;;30.30;94.50;;;;;;4991923;28;20042;-65
2022/06/28 07:29:42;;;;;;;2.97;2.70;;;30.40;95.10;;;;;;4992917;28;20030;-64
2022/06/28 07:32:08;;;;;;;2.88;2.67;;;30.60;93.90;;;;;;4992053;28;20018;-65
2022/06/28 07:34:34;;;;;;;3.03;2.83;;;30.80;94.10;;;;;;4992719;28;20042;-65
2022/06/28 07:37:00;;;;;;;2.97;2.65;;;30.90;92.60;;;;;;4991641;28;20091;-65
2022/06/28 07:39:26;;;;;;;4.63;3.03;;;31.10;93.40;;;;;;4998812;28;20030;-66
2022/06/28 07:41:53;;;;;;;2.97;2.63;;;31.10;93.00;;;;;;4992673;28;20029;-66
2022/06/28 07:44:19;;;;;;;3.88;2.90;;;31.30;92.90;;;;;;4990425;28;20173;-64
2022/06/28 07:46:45;;;;;;;2.95;2.75;;;31.50;92.10;;;;;;4993707;28;20038;-67
2022/06/28 07:49:11;;;;;;;2.28;2.00;;;31.80;91.60;;;;;;4994046;28;20027;-67
2022/06/28 07:54:21;;;;;;;3.15;2.88;;;35.10;89.00;;;;;;4992602;28;20089;-68
2022/06/28 07:56:46;;;;;;;2.55;2.38;;;36.70;77.90;;;;;;4992124;28;20034;-66
2022/06/28 07:59:12;;;;;;;2.72;2.28;;;37.60;71.80;;;;;;4992503;28;20038;-70
2022/06/28 08:01:40;;;;;;;2.25;2.05;;;38.50;68.10;;;;;;5007186;28;20037;-64
2022/06/28 08:04:07;;;;;;;2.47;2.28;;;39.30;66.10;;;;;;4991434;28;20061;-68
2022/06/28 08:06:34;;;;;;;2.13;2.03;;;39.90;61.20;;;;;;4990142;28;20050;-67
2022/06/28 08:09:00;;;;;;;3.33;2.92;;;40.40;60.30;;;;;;4990855;28;20388;-68
2022/06/28 08:11:26;;;;;;;2.35;2.15;;;40.70;57.50;;;;;;4989827;28;20030;-65
2022/06/28 08:13:54;;;;;;;2.25;2.10;;;40.70;56.80;;;;;;4991197;28;20116;-66
2022/06/28 08:16:23;;;;;;;2.40;1.98;;;40.90;55.80;;;;;;4992118;28;20038;-64
2022/06/28 08:18:49;;;;;;;2.10;1.90;;;41.10;54.30;;;;;;4993518;28;20026;-66
2022/06/28 08:21:18;;;;;;;1.70;1.55;;;41.20;50.90;;;;;;4992717;28;20056;-66
2022/06/28 08:23:44;;;;;;;2.25;1.30;;;41.40;51.40;;;;;;4991166;28;20034;-64
2022/06/28 08:26:10;;;;;;;3.83;2.60;;;41.90;51.20;;;;;;4991634;28;20053;-65
2022/06/28 08:28:35;;;;;;;3.97;3.33;;;42.10;49.60;;;;;;4992215;28;20042;-67
2022/06/28 08:31:01;;;;;;;4.18;2.45;;;41.70;50.50;;;;;;4992088;28;20027;-67
2022/06/28 08:33:27;;;;;;;2.22;1.60;;;41.50;45.40;;;;;;4991151;28;20033;-66
2022/06/28 08:35:53;;;;;;;2.03;1.50;;;40.90;42.80;;;;;;4993634;28;20389;-68
2022/06/28 08:38:18;;;;;;;2.72;1.27;;;40.70;42.70;;;;;;4993567;28;20023;-66
2022/06/28 08:40:45;;;;;;;1.73;1.35;;;40.70;42.60;;;;;;4992817;28;20030;-67
2022/06/28 08:43:11;;;;;;;2.28;1.67;;;40.60;41.70;;;;;;4993778;28;20056;-64
2022/06/28 08:45:38;;;;;;;1.95;1.75;;;40.30;41.80;;;;;;4993892;28;20031;-64
2022/06/28 08:48:20;;;;;;;2.53;1.75;;;40.30;42.40;;;;;;4992251;28;20018;-65
2022/06/28 08:50:50;;;;;;;;;;;40.20;41.20;;;;;;4982714;28;20102;-66
2022/06/28 08:53:17;;;;;;;2.38;1.42;;;40.50;41.10;;;;;;4992123;28;19921;-68
2022/06/28 08:55:43;;;;;;;1.42;1.33;;;40.70;42.70;;;;;;4988947;28;20106;-64
2022/06/28 08:58:09;;;;;;;1.85;1.40;;;41.40;42.20;;;;;;4987224;28;20113;-63
2022/06/28 09:00:35;;;;;;;2.42;1.30;;;41.50;41.30;;;;;;4992153;28;20027;-64
2022/06/28 09:03:01;;;;;;;1.85;1.50;;;41.60;42.30;;;;;;4992642;28;20485;-65
2022/06/28 09:05:28;;;;;;;3.78;1.52;;;41.30;40.90;;;;;;4993197;28;20070;-64
2022/06/28 09:07:55;;;;;;;1.48;1.20;;;41.50;41.00;;;;;;4978381;28;20018;-66
2022/06/28 09:10:21;;;;;;;1.83;1.40;;;41.80;40.50;;;;;;4980879;28;20031;-65
2022/06/28 09:12:54;;;;;;;4.78;1.48;;;41.60;39.20;;;;;;4979879;28;20100;-64
2022/06/28 09:15:22;;;;;;;1.60;1.50;;;41.60;39.30;;;;;;4994363;28;20082;-65
2022/06/28 09:17:53;;;;;;;3.13;1.40;;;41.60;39.80;;;;;;4982285;28;20029;-64
2022/06/28 09:20:19;;;;;;;1.52;1.30;;;41.60;39.20;;;;;;4988310;28;20356;-65
2022/06/28 09:22:45;;;;;;;2.22;1.42;;;41.60;39.50;;;;;;4983749;28;20046;-67
2022/06/28 09:25:24;;;;;;;2.25;1.30;;;41.40;40.70;;;;;;4985149;28;20033;-64
2022/06/28 09:27:56;;;;;;;1.60;1.20;;;41.60;41.00;;;;;;4993532;28;20113;-67
2022/06/28 09:30:22;;;;;;;2.05;1.48;;;41.80;40.10;;;;;;4983675;28;20062;-66
2022/06/28 09:32:48;;;;;;;1.20;1.10;;;41.70;39.90;;;;;;4992003;28;20030;-67
2022/06/28 09:35:14;;;;;;;1.40;1.30;;;41.60;41.00;;;;;;4992732;28;20101;-66
2022/06/28 09:40:10;;;;;;;2.60;1.42;;;41.60;40.90;;;;;;4992172;28;20101;-66
2022/06/28 09:42:36;;;;;;;1.65;1.55;;;41.70;40.80;;;;;;4995306;28;20030;-64
2022/06/28 09:45:03;;;;;;;3.10;1.48;;;41.30;40.70;;;;;;4995065;28;20389;-68
2022/06/28 09:47:28;;;;;;;1.55;1.35;;;40.60;39.90;;;;;;4996311;28;20037;-66
2022/06/28 09:49:54;;;;;;;1.05;1.05;;;40.60;40.00;;;;;;4996616;28;20027;-67
2022/06/28 09:52:26;;;;;;;1.45;1.20;;;40.40;40.40;;;;;;4996234;28;20022;-69
2022/06/28 09:54:55;;;;;;;1.33;1.23;;;40.90;39.00;;;;;;4995852;28;20082;-68
2022/06/28 09:57:21;;;;;;;1.27;1.17;;;41.50;40.30;;;;;;4994842;28;20029;-68
2022/06/28 09:59:49;;;;;;;1.13;1.02;;;41.50;39.70;;;;;;4994457;28;20022;-66
2022/06/28 10:02:17;;;;;;;1.30;1.08;;;41.80;39.20;;;;;;4994179;28;20037;-66
2022/06/28 10:04:45;;;;;;;1.15;1.05;;;41.90;39.50;;;;;;4995044;28;20033;-69
2022/06/28 10:07:11;;;;;;;1.30;1.20;;;41.80;41.00;;;;;;4995386;28;20026;-66
2022/06/28 10:09:38;;;;;;;1.50;1.40;;;41.60;38.90;;;;;;4994742;28;20029;-65
2022/06/28 10:15:04;;;;;;;3.08;1.20;;;41.80;38.70;;;;;;4994646;28;20073;-68
2022/06/28 10:17:59;;;;;;;1.38;1.17;;;41.60;39.00;;;;;;4987998;28;20034;-68
2022/06/28 10:20:24;;;;;;;1.10;1.10;;;41.30;39.60;;;;;;4993701;28;20037;-67
2022/06/28 10:22:50;;;;;;;1.10;1.10;;;41.40;38.70;;;;;;4994627;28;20101;-65
2022/06/28 10:25:19;;;;;;;1.00;1.00;;;41.40;38.70;;;;;;4988632;28;20422;-69
2022/06/28 10:27:48;;;;;;;1.50;1.40;;;41.60;38.70;;;;;;4993240;28;20050;-69
2022/06/28 10:30:19;;;;;;;2.25;1.58;;;41.60;38.40;;;;;;4993612;28;20053;-65
2022/06/28 10:32:53;;;;;;;1.20;1.10;;;41.60;38.60;;;;;;4993820;28;20046;-67
2022/06/28 10:35:36;;;;;;;1.30;1.20;;;41.60;38.30;;;;;;4993917;28;20026;-65
2022/06/28 10:38:08;;;;;;;1.35;1.20;;;41.40;38.90;;;;;;4994238;28;20025;-67
2022/06/28 10:40:45;;;;;;;1.20;1.10;;;41.10;39.70;;;;;;4992300;28;20481;-72
2022/06/28 10:43:11;;;;;;;2.15;1.40;;;40.80;40.10;;;;;;4983430;28;20049;-70
2022/06/28 10:46:02;;;;;;;1.45;1.35;;;40.40;38.40;;;;;;4983348;28;20046;-69
2022/06/28 10:48:51;;;;;;;1.40;1.30;;;40.00;40.30;;;;;;4992944;28;20034;-72
2022/06/28 10:51:19;;;;;;;1.20;1.10;;;40.20;39.70;;;;;;4992460;28;20034;-71
2022/06/28 10:53:57;;;;;;;1.80;1.17;;;40.40;39.50;;;;;;4993036;28;20041;-75
2022/06/28 10:56:26;;;;;;;1.38;1.23;;;40.40;38.60;;;;;;4983562;28;20058;-70
2022/06/28 10:59:04;;;;;;;1.40;1.30;;;40.40;39.40;;;;;;4982003;28;20031;-66
2022/06/28 11:01:39;;;;;;;1.63;1.05;;;40.70;40.00;;;;;;4983787;28;20048;-66
2022/06/28 11:04:21;;;;;;;1.98;1.70;;;40.70;41.50;;;;;;4982267;28;20038;-64
2022/06/28 11:07:00;;;;;;;1.48;1.38;;;40.50;40.00;;;;;;4995142;28;20023;-65
2022/06/28 11:09:35;;;;;;;1.40;1.30;;;40.00;40.30;;;;;;4995301;28;20113;-65
2022/06/28 11:12:08;;;;;;;1.63;1.50;;;40.40;40.40;;;;;;4994201;28;20077;-65
2022/06/28 11:14:45;;;;;;;1.25;1.15;;;40.60;40.30;;;;;;4993658;28;20031;-69
2022/06/28 11:17:26;;;;;;;2.33;1.58;;;40.40;39.20;;;;;;4994235;28;20423;-69
2022/06/28 11:20:00;;;;;;;1.17;1.10;;;40.60;38.80;;;;;;4995115;28;20023;-67
2022/06/28 11:22:33;;;;;;;1.25;1.00;;;40.30;39.20;;;;;;4994605;28;20030;-69
2022/06/28 11:25:02;;;;;;;1.17;1.08;;;40.60;40.70;;;;;;4994038;28;20026;-65
2022/06/28 11:27:29;;;;;;;1.30;1.20;;;40.80;40.30;;;;;;4993608;28;20093;-68
2022/06/28 11:30:00;;;;;;;1.02;1.00;;;40.80;39.40;;;;;;4993372;28;20034;-65
2022/06/28 11:32:32;;;;;;;1.38;1.20;;;40.90;41.30;;;;;;4992898;28;20384;-70
2022/06/28 11:35:09;;;;;;;1.40;1.30;;;41.00;41.50;;;;;;4993362;28;20011;-71
2022/06/28 11:37:58;;;;;;;1.52;1.42;;;41.30;39.90;;;;;;4993133;28;20025;-69
2022/06/28 11:40:25;;;;;;;1.30;1.20;;;41.20;40.20;;;;;;4993789;28;20357;-71
2022/06/28 11:43:07;;;;;;;2.35;1.40;;;41.20;39.20;;;;;;4994545;28;20030;-70
2022/06/28 11:45:38;;;;;;;1.65;1.17;;;41.10;38.60;;;;;;4993964;28;20172;-71
2022/06/28 11:48:11;;;;;;;1.67;1.30;;;40.70;39.00;;;;;;4994789;28;20030;-70
2022/06/28 11:50:49;;;;;;;1.80;1.25;;;41.10;40.10;;;;;;4994763;28;20106;-69
2022/06/28 11:53:16;;;;;;;1.73;1.27;;;41.20;41.10;;;;;;4994865;28;20076;-72
2022/06/28 11:55:44;;;;;;;1.02;1.02;;;41.30;39.10;;;;;;4993936;28;20046;-69
2022/06/28 11:58:17;;;;;;;1.58;1.20;;;41.80;39.90;;;;;;4994850;28;20464;-72
2022/06/28 12:01:04;;;;;;;2.00;1.50;;;41.70;38.90;;;;;;4994786;28;20026;-70
2022/06/28 12:03:31;;;;;;;1.13;1.13;;;41.40;41.80;;;;;;4993768;28;20030;-69
2022/06/28 12:05:59;;;;;;;1.30;1.20;;;41.80;38.60;;;;;;4991580;28;20116;-71
2022/06/28 12:08:44;;;;;;;1.38;1.10;;;41.80;39.80;;;;;;4992863;28;20022;-70
2022/06/28 12:11:32;;;;;;;1.25;1.00;;;41.90;39.60;;;;;;4994251;28;20023;-71
2022/06/28 12:14:11;;;;;;;1.15;1.08;;;42.10;40.60;;;;;;4993964;28;20048;-73
2022/06/28 12:16:43;;;;;;;1.50;1.40;;;42.30;38.60;;;;;;4994161;28;20432;-71
2022/06/28 12:19:18;;;;;;;2.28;1.40;;;42.20;37.90;;;;;;4994600;28;20026;-73
2022/06/28 12:22:04;;;;;;;1.50;1.40;;;41.70;37.60;;;;;;4993390;28;20109;-71
2022/06/28 12:24:54;;;;;;;1.52;1.42;;;41.60;38.80;;;;;;4992405;28;20459;-70
2022/06/28 12:27:27;;;;;;;1.10;1.10;;;41.80;38.40;;;;;;4992410;28;20025;-72
2022/06/28 12:29:55;;;;;;;1.42;1.25;;;41.90;37.90;;;;;;4992831;28;20112;-70
2022/06/28 12:32:21;;;;;;;1.50;1.40;;;41.90;39.20;;;;;;4993221;28;20111;-73
2022/06/28 12:34:47;;;;;;;1.33;1.25;;;42.10;39.40;;;;;;4993770;28;20046;-70
2022/06/28 12:37:13;;;;;;;1.50;1.40;;;42.20;38.90;;;;;;4993816;28;20433;-71
2022/06/28 12:39:39;;;;;;;1.70;1.60;;;42.10;38.60;;;;;;4994157;28;20029;-69
2022/06/28 12:42:06;;;;;;;3.22;1.70;;;41.80;39.00;;;;;;4993943;28;20106;-70
2022/06/28 12:44:32;;;;;;;1.60;1.35;;;41.40;38.70;;;;;;4994156;28;20102;-72
2022/06/28 12:46:59;;;;;;;1.55;1.45;;;41.00;39.30;;;;;;4993951;28;20018;-70
2022/06/28 12:49:24;;;;;;;2.40;1.45;;;41.20;39.40;;;;;;4993932;28;20050;-69
2022/06/28 12:51:51;;;;;;;1.45;1.35;;;41.10;39.80;;;;;;4994161;28;20522;-69
2022/06/28 12:54:17;;;;;;;1.40;1.30;;;41.10;39.90;;;;;;4992734;28;20037;-71
2022/06/28 12:56:44;;;;;;;1.33;1.23;;;41.30;38.60;;;;;;4992629;28;20495;-72
2022/06/28 12:59:10;;;;;;;1.23;1.13;;;41.00;40.20;;;;;;4994061;28;20105;-70
2022/06/28 13:01:35;;;;;;;2.05;1.80;;;40.90;39.10;;;;;;4993593;28;20050;-68
2022/06/28 13:04:02;;;;;;;1.60;1.50;;;41.10;39.70;;;;;;4993830;28;20028;-69
2022/06/28 13:06:29;;;;;;;1.25;1.15;;;41.40;39.70;;;;;;4992576;28;20495;-71
2022/06/28 13:08:55;;;;;;;1.40;1.30;;;41.80;39.60;;;;;;4993982;28;20026;-69
2022/06/28 13:11:22;;;;;;;1.30;1.20;;;41.70;38.50;;;;;;4993804;28;20423;-72